Time;durP1;ratioP1;P1;durP2;ratioP2;P2;SDS_P1;SDS_P2;PMS_P1;PMS_P2;Temp;Humidity;BMP_temperature;BMP_pressure;BME280_temperature;BME280_humidity;BME280_pressure;Samples;Min_cycle;Max_cycle;Signal;HPM_P1;HPM_P2
2023/06/02 00:01:00;;;;;;;8.93;8.00;;;14.70;99.90;;;;;;5018340;28;20058;-59
2023/06/02 00:03:32;;;;;;;8.65;7.95;;;14.70;99.90;;;;;;5020282;28;20022;-57
2023/06/02 00:06:09;;;;;;;8.00;7.35;;;14.60;99.90;;;;;;5017402;28;20061;-58
2023/06/02 00:08:40;;;;;;;8.85;8.05;;;14.70;99.90;;;;;;5017294;28;20034;-58
2023/06/02 00:11:07;;;;;;;8.68;7.82;;;14.60;99.90;;;;;;5015873;28;20375;-58
2023/06/02 00:13:33;;;;;;;8.23;7.15;;;14.50;99.90;;;;;;5020102;28;20037;-57
2023/06/02 00:15:59;;;;;;;9.30;7.60;;;14.50;99.90;;;;;;5017116;28;20018;-56
2023/06/02 00:18:25;;;;;;;8.75;7.95;;;14.40;99.90;;;;;;5022682;28;20036;-57
2023/06/02 00:20:52;;;;;;;8.38;7.60;;;14.30;99.90;;;;;;5019497;28;20029;-57
2023/06/02 00:23:18;;;;;;;8.15;7.45;;;14.20;99.90;;;;;;5016011;28;20030;-57
2023/06/02 00:25:44;;;;;;;11.43;8.13;;;14.10;99.90;;;;;;5017109;28;20600;-57
2023/06/02 00:28:10;;;;;;;8.60;7.93;;;13.90;99.90;;;;;;5017303;28;20030;-59
2023/06/02 00:30:36;;;;;;;9.52;8.63;;;13.80;99.90;;;;;;5018476;28;20208;-58
2023/06/02 00:33:01;;;;;;;10.98;8.23;;;13.60;99.90;;;;;;5016270;28;20085;-58
2023/06/02 00:35:27;;;;;;;9.95;9.05;;;13.50;99.90;;;;;;5017792;28;20036;-57
2023/06/02 00:37:54;;;;;;;8.45;7.65;;;13.40;99.90;;;;;;5017266;28;20026;-59
2023/06/02 00:40:20;;;;;;;8.73;7.68;;;13.40;99.90;;;;;;5017808;28;20102;-58
2023/06/02 00:42:46;;;;;;;8.80;7.95;;;13.40;99.90;;;;;;5017613;28;20029;-54
2023/06/02 00:45:13;;;;;;;9.50;8.68;;;13.40;99.90;;;;;;5018181;28;20081;-58
2023/06/02 00:47:39;;;;;;;8.60;7.35;;;13.40;99.90;;;;;;5018740;28;20030;-58
2023/06/02 00:50:05;;;;;;;8.75;7.57;;;13.50;99.90;;;;;;5019848;28;20104;-58
2023/06/02 00:52:33;;;;;;;7.97;7.28;;;13.50;99.90;;;;;;5019282;28;20034;-57
2023/06/02 00:55:02;;;;;;;11.23;7.40;;;13.50;99.90;;;;;;5017271;28;20029;-57
2023/06/02 00:57:28;;;;;;;8.43;7.13;;;13.50;99.90;;;;;;5014939;28;20385;-58
2023/06/02 00:59:57;;;;;;;10.13;8.48;;;13.50;99.90;;;;;;5013044;28;20021;-58
2023/06/02 01:02:22;;;;;;;7.93;7.13;;;13.40;99.90;;;;;;5016797;28;20038;-58
2023/06/02 01:04:50;;;;;;;9.93;7.68;;;13.30;99.90;;;;;;5019754;28;20036;-57
2023/06/02 01:07:23;;;;;;;11.30;7.50;;;13.20;99.90;;;;;;5011696;28;20385;-57
2023/06/02 01:09:52;;;;;;;8.70;7.90;;;13.00;99.90;;;;;;5017545;28;20036;-57
2023/06/02 01:12:19;;;;;;;8.50;7.80;;;12.90;99.90;;;;;;5016633;28;20073;-57
2023/06/02 01:14:45;;;;;;;8.25;7.40;;;12.80;99.90;;;;;;5016303;28;20087;-56
2023/06/02 01:17:11;;;;;;;8.80;7.72;;;12.80;99.90;;;;;;5017849;28;20665;-59
2023/06/02 01:19:38;;;;;;;9.35;7.63;;;12.70;99.90;;;;;;5018563;28;20029;-57
2023/06/02 01:22:05;;;;;;;8.77;7.25;;;12.70;99.90;;;;;;5016322;28;20021;-57
2023/06/02 01:24:39;;;;;;;9.23;8.27;;;12.70;99.90;;;;;;5018884;28;20017;-57
2023/06/02 01:27:09;;;;;;;8.18;7.38;;;12.70;99.90;;;;;;5018249;28;20022;-58
2023/06/02 01:29:38;;;;;;;21.65;8.40;;;12.70;99.90;;;;;;5017518;28;20041;-59
2023/06/02 01:32:27;;;;;;;11.38;7.22;;;12.70;99.90;;;;;;5018980;28;20116;-58
2023/06/02 01:34:59;;;;;;;8.10;7.40;;;12.60;99.90;;;;;;5018150;28;20026;-58
2023/06/02 01:37:28;;;;;;;8.68;7.38;;;12.50;99.90;;;;;;5014354;28;20403;-58
2023/06/02 01:39:54;;;;;;;12.30;8.20;;;12.50;99.90;;;;;;5016500;28;20029;-58
2023/06/02 01:42:21;;;;;;;12.73;7.57;;;12.50;99.90;;;;;;5015460;28;20049;-57
2023/06/02 01:44:48;;;;;;;7.50;6.75;;;12.50;99.90;;;;;;5018800;28;20045;-58
2023/06/02 01:47:14;;;;;;;8.25;7.45;;;12.50;99.90;;;;;;5014140;28;20026;-58
2023/06/02 01:49:39;;;;;;;8.75;7.30;;;12.40;99.90;;;;;;5017524;28;20429;-57
2023/06/02 01:52:05;;;;;;;7.70;7.00;;;12.30;99.90;;;;;;5018362;28;20055;-58
2023/06/02 01:54:31;;;;;;;13.48;7.28;;;12.20;99.90;;;;;;5017060;28;20021;-57
2023/06/02 01:56:56;;;;;;;8.82;7.97;;;12.20;99.90;;;;;;5017303;28;20038;-57
2023/06/02 01:59:22;;;;;;;11.57;7.97;;;12.10;99.90;;;;;;5014199;28;20022;-56
2023/06/02 02:01:48;;;;;;;8.30;7.22;;;12.00;99.90;;;;;;5015943;28;20071;-59
2023/06/02 02:04:13;;;;;;;9.77;7.72;;;11.90;99.90;;;;;;5017256;28;20033;-58
2023/06/02 02:06:39;;;;;;;9.98;7.15;;;11.80;99.90;;;;;;5018516;28;20029;-58
2023/06/02 02:09:07;;;;;;;12.48;9.30;;;11.80;99.90;;;;;;5015668;28;20057;-58
2023/06/02 02:11:33;;;;;;;9.80;7.60;;;11.80;99.90;;;;;;5015493;28;20064;-58
2023/06/02 02:13:59;;;;;;;9.48;7.82;;;11.80;99.90;;;;;;5016605;28;20061;-59
2023/06/02 02:16:24;;;;;;;8.52;7.70;;;11.80;99.90;;;;;;5015166;28;20101;-58
2023/06/02 02:18:52;;;;;;;14.90;9.18;;;11.80;99.90;;;;;;5017058;28;20013;-57
2023/06/02 02:21:18;;;;;;;8.93;8.07;;;11.80;99.90;;;;;;5016995;28;20025;-59
2023/06/02 02:23:44;;;;;;;11.32;9.23;;;11.80;99.90;;;;;;5017394;28;20029;-58
2023/06/02 02:26:10;;;;;;;12.77;8.88;;;11.90;99.90;;;;;;5015998;28;20033;-58
2023/06/02 02:28:37;;;;;;;10.75;8.25;;;11.90;99.90;;;;;;5015113;28;20038;-57
2023/06/02 02:31:04;;;;;;;9.85;8.13;;;11.90;99.90;;;;;;5018044;28;20121;-56
2023/06/02 02:33:30;;;;;;;10.93;8.77;;;11.90;99.90;;;;;;5015709;28;20482;-57
2023/06/02 02:35:56;;;;;;;10.85;8.45;;;11.90;99.90;;;;;;5011525;28;20040;-58
2023/06/02 02:38:22;;;;;;;11.02;8.00;;;11.80;99.90;;;;;;5013920;28;20567;-57
2023/06/02 02:40:48;;;;;;;9.25;8.07;;;11.80;99.90;;;;;;5013617;28;20021;-56
2023/06/02 02:43:15;;;;;;;9.95;8.93;;;11.70;99.90;;;;;;5013930;28;20026;-56
2023/06/02 02:45:41;;;;;;;11.40;9.65;;;11.60;99.90;;;;;;5015779;28;20076;-58
2023/06/02 02:48:07;;;;;;;10.02;8.45;;;11.50;99.90;;;;;;5013338;28;20583;-57
2023/06/02 02:50:33;;;;;;;11.82;9.43;;;11.40;99.90;;;;;;5012975;28;20042;-57
2023/06/02 02:52:58;;;;;;;9.85;8.90;;;11.40;99.90;;;;;;5013899;28;20090;-57
2023/06/02 02:55:25;;;;;;;9.98;8.98;;;11.30;99.90;;;;;;5014706;28;20117;-58
2023/06/02 02:57:51;;;;;;;12.63;9.38;;;11.30;99.90;;;;;;5014008;28;20036;-56
2023/06/02 03:00:17;;;;;;;11.60;9.30;;;11.40;99.90;;;;;;5015197;28;20640;-57
2023/06/02 03:02:42;;;;;;;13.48;9.20;;;11.40;99.90;;;;;;5016227;28;20105;-58
2023/06/02 03:05:08;;;;;;;11.43;8.82;;;11.40;99.90;;;;;;5017233;28;20164;-59
2023/06/02 03:07:34;;;;;;;13.95;9.80;;;11.40;99.90;;;;;;5018833;28;20034;-57
2023/06/02 03:10:00;;;;;;;10.98;9.35;;;11.40;99.90;;;;;;5017977;28;20029;-58
2023/06/02 03:12:26;;;;;;;12.52;9.30;;;11.30;99.90;;;;;;5017873;28;20026;-57
2023/06/02 03:14:51;;;;;;;12.88;9.75;;;11.30;99.90;;;;;;5011665;28;20785;-57
2023/06/02 03:17:17;;;;;;;10.35;9.30;;;11.20;99.90;;;;;;5017384;28;20025;-58
2023/06/02 03:19:43;;;;;;;11.07;9.98;;;11.10;99.90;;;;;;5015182;28;20033;-58
2023/06/02 03:22:09;;;;;;;18.02;11.55;;;11.10;99.90;;;;;;5013734;28;20041;-58
2023/06/02 03:24:34;;;;;;;11.02;10.07;;;11.10;99.90;;;;;;5014905;28;20026;-58
2023/06/02 03:27:00;;;;;;;12.48;10.35;;;11.10;99.90;;;;;;5012194;28;20032;-58
2023/06/02 03:29:25;;;;;;;12.45;10.98;;;11.10;99.90;;;;;;5014575;28;20041;-57
2023/06/02 03:31:53;;;;;;;12.60;9.82;;;11.10;99.90;;;;;;5012954;28;20072;-59
2023/06/02 03:34:20;;;;;;;10.60;9.30;;;11.10;99.90;;;;;;5012116;28;20712;-58
2023/06/02 03:36:46;;;;;;;10.82;9.73;;;11.10;99.90;;;;;;5014589;28;20045;-58
2023/06/02 03:39:13;;;;;;;9.70;8.75;;;11.10;99.90;;;;;;5014464;28;20025;-58
2023/06/02 03:41:39;;;;;;;18.55;9.98;;;11.20;99.90;;;;;;5014482;28;20594;-58
2023/06/02 03:44:05;;;;;;;10.15;9.05;;;11.20;99.90;;;;;;5013041;28;20588;-56
2023/06/02 03:46:31;;;;;;;12.15;9.77;;;11.30;99.90;;;;;;5012733;28;20030;-58
2023/06/02 03:48:57;;;;;;;13.32;9.88;;;11.40;99.90;;;;;;5014120;28;20030;-57
2023/06/02 03:51:23;;;;;;;10.07;9.15;;;11.50;99.90;;;;;;5017184;28;20029;-56
2023/06/02 03:53:49;;;;;;;11.68;8.00;;;11.70;99.90;;;;;;5018767;28;20033;-57
2023/06/02 03:56:15;;;;;;;10.02;9.07;;;11.70;99.90;;;;;;5018683;28;20022;-60
2023/06/02 03:58:41;;;;;;;9.95;8.38;;;11.80;99.90;;;;;;5018169;28;20031;-57
2023/06/02 04:01:06;;;;;;;11.02;8.90;;;11.90;99.90;;;;;;5019194;28;20030;-58
2023/06/02 04:03:36;;;;;;;9.85;8.60;;;11.90;99.90;;;;;;5017250;28;20022;-57
2023/06/02 04:06:03;;;;;;;10.05;9.02;;;11.90;99.90;;;;;;5016531;28;20033;-58
2023/06/02 04:08:29;;;;;;;16.02;8.82;;;12.00;99.90;;;;;;5022748;28;20026;-58
2023/06/02 04:10:55;;;;;;;10.70;9.60;;;12.00;99.90;;;;;;5020146;28;20535;-57
2023/06/02 04:13:21;;;;;;;13.35;9.05;;;12.10;99.90;;;;;;5019972;28;20437;-58
2023/06/02 04:15:46;;;;;;;13.68;8.88;;;12.10;99.90;;;;;;5024530;28;20026;-56
2023/06/02 04:18:12;;;;;;;11.07;9.15;;;12.20;99.90;;;;;;5021876;28;20387;-57
2023/06/02 04:20:38;;;;;;;14.13;9.07;;;12.20;99.90;;;;;;5020728;28;20033;-57
2023/06/02 04:23:03;;;;;;;10.35;9.02;;;12.20;99.90;;;;;;5018160;28;20035;-58
2023/06/02 04:25:29;;;;;;;10.98;9.27;;;12.30;99.90;;;;;;5019616;28;20037;-59
2023/06/02 04:27:55;;;;;;;17.23;8.88;;;12.30;99.90;;;;;;5019620;28;20156;-57
2023/06/02 04:30:20;;;;;;;15.07;9.68;;;12.30;99.90;;;;;;5022155;28;20039;-57
2023/06/02 04:32:46;;;;;;;8.80;8.00;;;12.30;99.90;;;;;;5019286;28;20026;-58
2023/06/02 04:35:12;;;;;;;9.90;8.68;;;12.30;99.90;;;;;;5019746;28;20046;-58
2023/06/02 04:37:38;;;;;;;7.35;6.65;;;12.30;99.90;;;;;;5020748;28;20247;-58
2023/06/02 04:40:04;;;;;;;12.90;7.45;;;12.40;99.90;;;;;;5018717;28;20051;-58
2023/06/02 04:42:32;;;;;;;10.40;7.25;;;12.40;99.90;;;;;;5017440;28;20478;-58
2023/06/02 04:45:00;;;;;;;8.73;6.75;;;12.50;99.90;;;;;;5019517;28;20029;-58
2023/06/02 04:47:27;;;;;;;9.23;7.32;;;12.60;99.90;;;;;;5021177;28;20037;-56
2023/06/02 04:49:53;;;;;;;8.30;6.22;;;12.70;99.90;;;;;;5021592;28;20034;-58
2023/06/02 04:52:19;;;;;;;7.63;6.82;;;12.70;99.90;;;;;;5022051;28;20041;-58
2023/06/02 04:54:45;;;;;;;8.73;7.80;;;12.70;99.90;;;;;;5020705;28;20032;-58
2023/06/02 04:57:10;;;;;;;7.80;6.68;;;12.70;99.90;;;;;;5017838;28;20112;-61
2023/06/02 04:59:36;;;;;;;8.95;6.82;;;12.80;99.90;;;;;;5020268;28;20025;-58
2023/06/02 05:02:02;;;;;;;12.00;7.03;;;12.80;99.90;;;;;;5020898;28;20025;-57
2023/06/02 05:04:27;;;;;;;12.43;7.40;;;12.80;99.90;;;;;;5020755;28;20035;-57
2023/06/02 05:06:53;;;;;;;8.73;6.68;;;12.80;99.90;;;;;;5020522;28;20087;-56
2023/06/02 05:09:19;;;;;;;11.40;7.47;;;12.80;99.90;;;;;;5019252;28;20112;-57
2023/06/02 05:11:45;;;;;;;9.93;7.88;;;12.80;99.90;;;;;;5019639;28;20050;-57
2023/06/02 05:14:10;;;;;;;13.88;7.13;;;12.90;99.90;;;;;;5023727;28;20033;-58
2023/06/02 05:16:36;;;;;;;10.35;6.57;;;13.00;99.90;;;;;;5018790;28;20037;-58
2023/06/02 05:19:05;;;;;;;9.40;7.20;;;13.00;99.90;;;;;;5020290;28;20030;-56
2023/06/02 05:21:31;;;;;;;8.50;7.05;;;13.10;99.90;;;;;;5020048;28;20029;-58
2023/06/02 05:23:58;;;;;;;9.75;6.30;;;13.10;99.90;;;;;;5018643;28;20518;-57
2023/06/02 05:26:24;;;;;;;8.48;6.75;;;13.10;99.90;;;;;;5020423;28;20120;-59
2023/06/02 05:28:50;;;;;;;7.93;6.03;;;13.20;99.90;;;;;;5018378;28;20128;-57
2023/06/02 05:31:16;;;;;;;8.15;5.82;;;13.20;99.90;;;;;;5017164;28;20048;-58
2023/06/02 05:33:42;;;;;;;10.48;5.82;;;13.30;99.90;;;;;;5018525;28;20099;-58
2023/06/02 05:36:08;;;;;;;8.57;5.80;;;13.40;99.90;;;;;;5016575;28;20026;-57
2023/06/02 05:38:33;;;;;;;8.80;5.55;;;13.60;99.90;;;;;;5017573;28;20104;-58
2023/06/02 05:40:59;;;;;;;14.90;5.70;;;13.70;99.90;;;;;;5018283;28;20045;-58
2023/06/02 05:43:25;;;;;;;9.88;5.72;;;13.80;99.90;;;;;;5018803;28;20022;-59
2023/06/02 05:45:50;;;;;;;15.80;6.30;;;13.90;99.90;;;;;;5017852;28;20021;-58
2023/06/02 05:48:16;;;;;;;10.80;5.85;;;13.90;99.90;;;;;;5019733;28;20115;-57
2023/06/02 05:50:43;;;;;;;8.02;5.90;;;14.00;99.90;;;;;;5017417;28;20387;-57
2023/06/02 05:53:09;;;;;;;10.63;6.65;;;14.10;99.90;;;;;;5015159;28;20078;-59
2023/06/02 05:55:34;;;;;;;7.38;6.28;;;14.20;99.90;;;;;;5015555;28;20113;-57
2023/06/02 05:58:00;;;;;;;11.18;6.43;;;14.40;99.90;;;;;;5019456;28;20155;-57
2023/06/02 06:00:26;;;;;;;9.18;5.45;;;14.50;99.90;;;;;;5015230;28;20471;-57
2023/06/02 06:02:52;;;;;;;9.88;5.28;;;14.70;99.90;;;;;;5017699;28;20030;-58
2023/06/02 06:05:18;;;;;;;10.85;6.00;;;14.70;99.90;;;;;;5015888;28;20032;-56
2023/06/02 06:07:44;;;;;;;9.15;6.50;;;14.80;99.90;;;;;;5015833;28;20025;-59
2023/06/02 06:10:09;;;;;;;10.82;5.78;;;14.90;99.90;;;;;;5017192;28;20025;-59
2023/06/02 06:12:35;;;;;;;10.60;6.40;;;14.90;99.90;;;;;;5015310;28;20479;-57
2023/06/02 06:15:01;;;;;;;12.38;5.38;;;15.00;99.90;;;;;;5020140;28;20112;-58
2023/06/02 06:17:26;;;;;;;12.15;5.50;;;15.10;99.90;;;;;;5016190;28;20022;-59
2023/06/02 06:19:52;;;;;;;6.55;5.18;;;15.10;99.90;;;;;;5014853;28;20052;-59
2023/06/02 06:22:18;;;;;;;10.18;6.40;;;15.10;99.90;;;;;;5017435;28;20029;-59
2023/06/02 06:24:43;;;;;;;10.07;5.43;;;15.10;99.90;;;;;;5018418;28;20183;-57
2023/06/02 06:27:09;;;;;;;9.95;5.18;;;15.20;99.90;;;;;;5016829;28;20056;-58
2023/06/02 06:29:35;;;;;;;8.25;5.75;;;15.20;99.90;;;;;;5017227;28;20133;-57
2023/06/02 06:32:00;;;;;;;11.00;5.53;;;15.30;99.90;;;;;;5014906;28;20037;-59
2023/06/02 06:34:27;;;;;;;7.97;5.88;;;15.30;99.90;;;;;;5012093;28;20933;-59
2023/06/02 06:36:53;;;;;;;8.90;5.60;;;15.30;99.90;;;;;;5017786;28;20053;-59
2023/06/02 06:39:19;;;;;;;7.80;5.53;;;15.20;99.90;;;;;;5018074;28;20111;-58
2023/06/02 06:41:44;;;;;;;9.70;4.85;;;15.20;99.90;;;;;;5018125;28;20060;-59
2023/06/02 06:44:11;;;;;;;12.05;5.05;;;15.10;99.90;;;;;;5014883;28;20030;-57
2023/06/02 06:46:37;;;;;;;9.10;5.55;;;14.90;99.90;;;;;;5017332;28;20429;-59
2023/06/02 06:49:02;;;;;;;10.18;5.65;;;14.80;99.90;;;;;;5017866;28;20092;-57
2023/06/02 06:51:28;;;;;;;10.98;5.10;;;14.80;99.90;;;;;;5017447;28;20513;-58
2023/06/02 06:53:54;;;;;;;15.90;5.45;;;14.70;99.90;;;;;;5018968;28;20064;-59
2023/06/02 06:56:20;;;;;;;6.45;4.45;;;14.70;99.90;;;;;;5013811;28;20042;-58
2023/06/02 06:58:45;;;;;;;9.93;5.05;;;14.70;99.90;;;;;;5014888;28;20045;-59
2023/06/02 07:01:12;;;;;;;16.10;5.40;;;14.70;99.90;;;;;;5016503;28;20029;-58
2023/06/02 07:03:38;;;;;;;8.57;5.38;;;14.60;99.90;;;;;;5016873;28;20398;-57
2023/06/02 07:06:03;;;;;;;11.32;5.95;;;14.70;99.90;;;;;;5013845;28;20034;-59
2023/06/02 07:08:30;;;;;;;10.90;4.65;;;14.70;99.90;;;;;;5013267;28;20105;-58
2023/06/02 07:10:55;;;;;;;15.18;5.45;;;14.70;99.90;;;;;;5016753;28;20037;-58
2023/06/02 07:13:21;;;;;;;14.23;5.13;;;14.90;99.90;;;;;;5017513;28;20033;-58
2023/06/02 07:15:48;;;;;;;10.23;5.10;;;15.00;99.90;;;;;;5015100;28;20022;-57
2023/06/02 07:18:14;;;;;;;15.35;4.95;;;15.20;99.90;;;;;;5019244;28;20026;-58
2023/06/02 07:20:40;;;;;;;10.27;5.22;;;15.30;99.90;;;;;;5012187;28;20037;-59
2023/06/02 07:23:05;;;;;;;6.75;4.32;;;15.30;99.90;;;;;;5015304;28;20033;-59
2023/06/02 07:25:31;;;;;;;12.05;5.00;;;15.40;99.90;;;;;;5021610;28;20387;-59
2023/06/02 07:27:56;;;;;;;9.35;4.50;;;15.50;99.90;;;;;;5018162;28;20125;-59
2023/06/02 07:30:22;;;;;;;8.18;4.80;;;15.60;99.90;;;;;;5017617;28;20036;-59
2023/06/02 07:32:48;;;;;;;9.18;4.85;;;15.60;99.90;;;;;;5018726;28;20417;-58
2023/06/02 07:35:15;;;;;;;10.82;4.60;;;15.70;99.90;;;;;;5020112;28;20030;-56
2023/06/02 07:37:41;;;;;;;6.07;4.28;;;15.60;99.90;;;;;;5016827;28;20493;-58
2023/06/02 07:40:07;;;;;;;6.47;3.97;;;15.60;99.90;;;;;;5019239;28;20040;-59
2023/06/02 07:42:33;;;;;;;8.77;4.82;;;15.60;99.90;;;;;;5017972;28;20021;-60
2023/06/02 07:44:59;;;;;;;9.68;4.38;;;15.60;99.90;;;;;;5017299;28;20041;-58
2023/06/02 07:47:24;;;;;;;16.33;5.20;;;15.60;99.90;;;;;;5016649;28;20022;-59
2023/06/02 07:49:50;;;;;;;9.57;4.30;;;15.60;99.90;;;;;;5019428;28;20026;-57
2023/06/02 07:52:16;;;;;;;9.02;4.38;;;15.60;99.90;;;;;;5019271;28;20805;-58
2023/06/02 07:54:41;;;;;;;7.50;3.90;;;15.70;99.90;;;;;;5019757;28;20117;-57
2023/06/02 07:57:07;;;;;;;7.32;4.25;;;15.70;99.90;;;;;;5018968;28;20130;-59
2023/06/02 07:59:32;;;;;;;9.25;4.03;;;15.70;99.90;;;;;;5022724;28;20037;-57
2023/06/02 08:01:58;;;;;;;6.22;4.13;;;15.80;99.90;;;;;;5018330;28;20033;-57
2023/06/02 08:04:25;;;;;;;9.27;4.55;;;15.90;99.90;;;;;;5018879;28;20040;-57
2023/06/02 08:06:57;;;;;;;10.45;4.18;;;16.10;99.00;;;;;;5020600;28;20100;-59
2023/06/02 08:09:24;;;;;;;8.50;4.70;;;16.20;98.20;;;;;;5021831;28;20018;-59
2023/06/02 08:11:50;;;;;;;7.53;4.65;;;16.20;97.20;;;;;;5017011;28;20038;-57
2023/06/02 08:14:16;;;;;;;8.63;5.20;;;16.20;97.20;;;;;;5018674;28;20456;-59
2023/06/02 08:16:42;;;;;;;8.25;4.53;;;16.20;96.20;;;;;;5018527;28;20042;-58
2023/06/02 08:19:10;;;;;;;9.18;4.65;;;16.30;97.60;;;;;;5017914;28;20063;-59
2023/06/02 08:21:36;;;;;;;9.65;5.30;;;16.40;96.30;;;;;;5020450;28;20045;-59
2023/06/02 08:24:02;;;;;;;9.95;4.55;;;16.40;96.00;;;;;;5019212;28;20517;-60
2023/06/02 08:26:29;;;;;;;5.93;5.35;;;16.50;97.10;;;;;;5018992;28;20044;-59
2023/06/02 08:28:55;;;;;;;6.88;5.00;;;16.60;97.10;;;;;;5019890;28;20391;-58
2023/06/02 08:31:23;;;;;;;8.23;4.53;;;16.70;96.90;;;;;;5018336;28;20041;-60
2023/06/02 08:33:52;;;;;;;24.50;5.50;;;16.80;96.80;;;;;;5016587;28;20029;-60
2023/06/02 08:36:19;;;;;;;7.30;4.28;;;16.90;95.00;;;;;;5017873;28;20108;-60
2023/06/02 08:38:52;;;;;;;11.02;4.57;;;16.90;95.20;;;;;;5016917;28;20025;-58
2023/06/02 08:41:18;;;;;;;6.38;4.72;;;17.10;95.00;;;;;;5018816;28;20022;-59
2023/06/02 08:43:44;;;;;;;14.80;5.93;;;17.20;94.80;;;;;;5018852;28;20029;-59
2023/06/02 08:46:15;;;;;;;6.55;4.82;;;17.30;94.70;;;;;;5016582;28;20049;-58
2023/06/02 08:48:45;;;;;;;7.45;5.05;;;17.20;93.20;;;;;;5020458;28;20548;-59
2023/06/02 08:51:15;;;;;;;9.82;5.20;;;17.30;92.90;;;;;;5017793;28;20087;-59
2023/06/02 08:53:41;;;;;;;16.63;5.10;;;17.30;93.50;;;;;;5020071;28;20458;-58
2023/06/02 08:56:07;;;;;;;22.45;5.80;;;17.30;93.10;;;;;;5017189;28;20353;-60
2023/06/02 08:58:34;;;;;;;8.73;5.47;;;17.40;93.40;;;;;;5016664;28;20398;-59
2023/06/02 09:01:03;;;;;;;9.82;5.47;;;17.50;92.60;;;;;;5015315;28;20060;-59
2023/06/02 09:03:28;;;;;;;7.82;4.45;;;17.60;91.70;;;;;;5016749;28;20029;-59
2023/06/02 09:05:54;;;;;;;8.30;5.35;;;17.70;90.90;;;;;;5016674;28;20041;-59
2023/06/02 09:08:20;;;;;;;8.82;5.30;;;17.70;90.90;;;;;;5020267;28;20763;-59
2023/06/02 09:10:48;;;;;;;7.38;4.90;;;17.70;90.60;;;;;;5021561;28;20041;-59
2023/06/02 09:13:32;;;;;;;13.35;5.10;;;17.90;90.40;;;;;;5020198;28;20379;-58
2023/06/02 09:16:02;;;;;;;6.70;5.07;;;18.10;90.50;;;;;;5015906;28;20022;-59
2023/06/02 09:18:28;;;;;;;14.48;4.93;;;18.20;87.50;;;;;;5018259;28;20497;-57
2023/06/02 09:20:58;;;;;;;6.32;4.15;;;18.40;86.50;;;;;;5019137;28;20525;-59
2023/06/02 09:23:43;;;;;;;5.85;3.60;;;18.50;89.60;;;;;;5018779;28;20068;-60
2023/06/02 09:26:21;;;;;;;8.30;3.80;;;18.80;86.00;;;;;;5018865;28;20120;-60
2023/06/02 09:29:02;;;;;;;6.95;4.00;;;18.90;83.60;;;;;;5015655;28;20044;-59
2023/06/02 09:31:48;;;;;;;7.65;3.65;;;19.10;85.70;;;;;;5016630;28;20034;-59
2023/06/02 09:34:14;;;;;;;7.57;3.13;;;19.30;86.80;;;;;;5018307;28;20026;-60
2023/06/02 09:36:40;;;;;;;7.85;3.50;;;19.40;80.50;;;;;;5017895;28;20037;-59
2023/06/02 09:39:08;;;;;;;8.00;3.40;;;19.50;79.00;;;;;;5016818;28;20119;-59
2023/06/02 09:41:34;;;;;;;5.45;3.55;;;19.60;79.90;;;;;;5013971;28;20653;-60
2023/06/02 09:44:00;;;;;;;5.93;2.67;;;19.70;81.40;;;;;;5017292;28;20048;-60
2023/06/02 09:46:25;;;;;;;4.47;2.92;;;19.90;82.40;;;;;;5014884;28;20112;-58
2023/06/02 09:48:55;;;;;;;5.88;3.40;;;20.10;77.60;;;;;;5018016;28;20489;-58
2023/06/02 09:51:25;;;;;;;11.73;4.07;;;20.20;77.00;;;;;;5017787;28;20111;-59
2023/06/02 09:53:51;;;;;;;8.70;3.60;;;20.30;75.40;;;;;;5018693;28;20041;-60
2023/06/02 09:56:22;;;;;;;5.85;3.25;;;20.30;78.00;;;;;;5012629;28;20034;-59
2023/06/02 09:58:48;;;;;;;5.53;3.30;;;20.40;73.60;;;;;;5015878;28;20030;-60
2023/06/02 10:01:15;;;;;;;7.80;3.25;;;20.30;76.10;;;;;;5015708;28;20379;-60
2023/06/02 10:03:44;;;;;;;5.38;3.25;;;20.30;75.70;;;;;;5014496;28;20036;-59
2023/06/02 10:06:30;;;;;;;9.25;3.67;;;20.20;74.80;;;;;;5015337;28;20492;-60
2023/06/02 10:09:26;;;;;;;5.70;3.00;;;20.20;74.50;;;;;;5010612;28;20840;-60
2023/06/02 10:12:04;;;;;;;5.32;3.20;;;20.30;72.70;;;;;;5014903;28;20397;-58
2023/06/02 10:14:47;;;;;;;8.77;3.30;;;20.30;74.10;;;;;;5015831;28;20566;-59
2023/06/02 10:17:37;;;;;;;6.18;3.17;;;20.40;71.10;;;;;;5016775;28;20026;-58
2023/06/02 10:20:08;;;;;;;9.88;3.63;;;20.30;70.80;;;;;;5018242;28;20100;-60
2023/06/02 10:23:02;;;;;;;5.78;2.35;;;20.10;71.90;;;;;;5016465;28;20037;-60
2023/06/02 10:25:39;;;;;;;6.85;3.30;;;20.00;71.00;;;;;;5014774;28;20088;-59
2023/06/02 10:28:08;;;;;;;10.30;3.08;;;20.00;72.00;;;;;;5005545;28;20034;-58
2023/06/02 10:30:35;;;;;;;6.32;2.67;;;20.00;72.00;;;;;;5008105;28;20040;-59
2023/06/02 10:33:01;;;;;;;6.50;3.28;;;20.10;73.70;;;;;;5016141;28;20113;-59
2023/06/02 10:35:59;;;;;;;6.63;3.17;;;20.20;73.30;;;;;;5017839;28;20128;-60
2023/06/02 10:38:35;;;;;;;8.10;2.83;;;20.10;71.60;;;;;;5015261;28;20022;-59
2023/06/02 10:41:01;;;;;;;6.18;3.13;;;20.30;75.50;;;;;;5018957;28;20033;-58
2023/06/02 10:43:27;;;;;;;11.30;3.25;;;20.50;72.40;;;;;;5016737;28;20064;-59
2023/06/02 10:45:54;;;;;;;10.25;3.63;;;20.50;72.00;;;;;;5015771;28;20025;-59
2023/06/02 10:48:39;;;;;;;6.60;3.30;;;20.40;71.40;;;;;;5015490;28;20064;-59
2023/06/02 10:51:07;;;;;;;7.53;4.00;;;20.40;72.70;;;;;;5013873;28;20080;-58
2023/06/02 10:53:33;;;;;;;9.55;4.00;;;20.40;74.40;;;;;;5014357;28;20035;-60
2023/06/02 10:56:40;;;;;;;5.35;3.13;;;20.50;74.00;;;;;;5016623;28;20432;-60
2023/06/02 10:59:07;;;;;;;10.80;4.20;;;20.60;72.00;;;;;;5015733;28;20057;-60
2023/06/02 11:01:51;;;;;;;9.15;4.30;;;20.70;71.20;;;;;;5018534;28;20030;-61
2023/06/02 11:04:24;;;;;;;7.88;3.85;;;20.60;69.50;;;;;;5016800;28;20042;-61
2023/06/02 11:07:18;;;;;;;7.97;3.65;;;20.40;71.70;;;;;;5018098;28;20444;-58
2023/06/02 11:09:48;;;;;;;9.02;4.13;;;20.30;72.00;;;;;;5019000;28;20509;-59
2023/06/02 11:12:15;;;;;;;5.70;3.83;;;20.10;72.10;;;;;;5021788;28;20081;-59
2023/06/02 11:15:10;;;;;;;7.57;4.22;;;20.10;73.50;;;;;;5021293;28;20482;-58
2023/06/02 11:17:37;;;;;;;7.25;4.07;;;20.20;74.10;;;;;;5009736;28;20032;-60
2023/06/02 11:20:06;;;;;;;6.40;3.83;;;20.40;72.70;;;;;;5019172;28;20482;-58
2023/06/02 11:22:36;;;;;;;6.70;3.67;;;20.40;71.70;;;;;;5020546;28;20129;-59
2023/06/02 11:25:03;;;;;;;8.60;4.43;;;20.50;70.70;;;;;;5020118;28;20026;-59
2023/06/02 11:27:36;;;;;;;8.00;4.07;;;20.50;69.80;;;;;;5023431;28;20025;-60
2023/06/02 11:30:10;;;;;;;7.03;4.00;;;20.50;71.10;;;;;;5020301;28;20128;-59
2023/06/02 11:32:37;;;;;;;7.38;4.07;;;20.50;70.70;;;;;;5018252;28;20096;-59
2023/06/02 11:35:05;;;;;;;13.10;4.38;;;20.60;71.70;;;;;;5018268;28;20036;-59
2023/06/02 11:37:31;;;;;;;9.00;4.35;;;20.70;71.10;;;;;;5019853;28;20034;-59
2023/06/02 11:39:57;;;;;;;7.07;4.38;;;20.60;71.20;;;;;;5019562;28;20022;-58
2023/06/02 11:42:43;;;;;;;5.70;3.92;;;20.70;70.10;;;;;;5018461;28;20393;-60
2023/06/02 11:45:20;;;;;;;8.48;4.57;;;20.70;68.50;;;;;;5016572;28;20037;-59
2023/06/02 11:47:47;;;;;;;8.63;4.13;;;20.60;68.20;;;;;;5018958;28;20022;-60
2023/06/02 11:50:17;;;;;;;8.07;4.82;;;20.60;68.00;;;;;;5019330;28;20033;-61
2023/06/02 11:52:43;;;;;;;10.13;3.90;;;20.60;67.20;;;;;;5020315;28;20525;-60
2023/06/02 11:55:10;;;;;;;6.70;3.78;;;20.50;66.70;;;;;;5019301;28;20516;-59
2023/06/02 11:57:36;;;;;;;7.60;3.80;;;20.40;67.50;;;;;;5020663;28;20029;-59
2023/06/02 12:00:11;;;;;;;11.45;4.70;;;20.40;68.90;;;;;;5019569;28;20128;-59
2023/06/02 12:02:39;;;;;;;11.30;4.63;;;20.50;70.00;;;;;;5019413;28;20034;-60
2023/06/02 12:05:09;;;;;;;6.18;3.92;;;20.60;67.90;;;;;;5020155;28;20055;-60
2023/06/02 12:07:35;;;;;;;5.03;4.05;;;20.60;68.80;;;;;;5020302;28;20029;-59
2023/06/02 12:10:03;;;;;;;7.20;4.03;;;20.70;68.50;;;;;;5014097;28;20053;-60
2023/06/02 12:12:30;;;;;;;9.38;4.22;;;20.70;67.60;;;;;;5018098;28;20357;-59
2023/06/02 12:14:56;;;;;;;16.27;4.22;;;20.80;66.90;;;;;;5024072;28;20141;-59
2023/06/02 12:17:21;;;;;;;5.90;3.85;;;20.90;67.00;;;;;;5018339;28;20026;-59
2023/06/02 12:19:59;;;;;;;10.52;3.83;;;21.00;65.40;;;;;;5020360;28;20493;-59
2023/06/02 12:22:25;;;;;;;7.60;3.83;;;20.90;67.50;;;;;;5017573;28;20048;-59
2023/06/02 12:24:51;;;;;;;7.03;4.35;;;20.90;67.70;;;;;;5015024;28;20021;-60
2023/06/02 12:27:24;;;;;;;9.25;4.15;;;21.00;69.10;;;;;;5017162;28;20033;-59
2023/06/02 12:29:49;;;;;;;11.57;3.47;;;21.10;68.60;;;;;;5019406;28;20076;-59
2023/06/02 12:32:26;;;;;;;10.32;4.10;;;21.10;65.00;;;;;;5020758;28;20069;-58
2023/06/02 12:34:51;;;;;;;8.88;3.22;;;21.10;64.90;;;;;;5019286;28;20088;-58
2023/06/02 12:37:18;;;;;;;6.65;3.60;;;21.10;65.00;;;;;;5019542;28;20038;-59
2023/06/02 12:39:43;;;;;;;5.65;3.47;;;21.10;64.40;;;;;;5021657;28;20079;-58
2023/06/02 12:42:13;;;;;;;9.35;3.45;;;21.10;64.40;;;;;;5021894;28;20817;-59
2023/06/02 12:44:38;;;;;;;6.97;3.13;;;21.10;66.00;;;;;;5017035;28;20422;-59
2023/06/02 12:47:06;;;;;;;6.70;3.25;;;21.20;65.60;;;;;;5010828;28;20034;-59